Willmar, Minnesota
Current Conditions -  °F | °C
As of 2:55 AM on Saturday 22 Nov 2014 (Local Time) from KBDH Reporting Station
Haze Haze  
Wind Chill: 17°   Ceiling: Unl
Heat Index: 23°   Visibility: 4mi
Dew Point: 21°   Wind: 5mph
Humidity: 93%   Direction: 160°SSE
Pressure: 29.78"   Gusts: NA
Location:  45.12°N, 95.05°W
Report Text: KBDH 220855Z AUTO 16004KT 4SM BR CLR M05/M06 A2978 RMK AO2
Loading
Personal Weather Stations






























Interactive Weather Map New forecast layout! Learn more

10-Day Weather Forecast

Advertisements
Track Severe Weather on mobile